Antelope, Oregon
Current Conditions -  °F | °C
As of 8:35 PM on Tuesday 21 Oct 2014 (Local Time) from KS39 Reporting Station
Clear Clear  
Wind Chill: 40°   Ceiling: Unl
Heat Index: 43°   Visibility: 10mi
Dew Point: 37°   Wind: 5mph
Humidity: 81%   Direction: 180°S
Pressure: 29.99"   Gusts: NA
Location:  44.91°N, 120.72°W
Report Text: KS39 220335Z 18004KT 10SM CLR 06/03 A2999 RMK AO2 CRANE OPERATIONS 1 MILE NE OF AIRPORT OPERATING AT APP. 150 FT AGL.
Loading
Personal Weather Stations






























Interactive Weather Map New forecast layout! Learn more

10-Day Weather Forecast

Advertisements
Track Severe Weather on mobile